createdAt,value
2023-01-22T00:01:26.115Z,2.97
2023-01-22T00:03:55.105Z,2.70
2023-01-22T00:06:23.781Z,3.07
2023-01-22T00:08:52.564Z,3.37
2023-01-22T00:11:22.673Z,2.93
2023-01-22T00:13:50.992Z,2.73
2023-01-22T00:16:20.376Z,3.57
2023-01-22T00:18:50.203Z,3.30
2023-01-22T00:21:18.749Z,3.20
2023-01-22T00:23:47.151Z,3.13
2023-01-22T00:26:17.498Z,3.50
2023-01-22T00:28:47.024Z,3.00
2023-01-22T00:31:16.628Z,3.30
2023-01-22T00:33:46.817Z,3.37
2023-01-22T00:36:18.436Z,3.70
2023-01-22T00:38:50.022Z,3.30
2023-01-22T00:41:19.568Z,3.10
2023-01-22T00:43:49.536Z,3.40
2023-01-22T00:46:18.955Z,3.00
2023-01-22T00:48:49.493Z,2.97
2023-01-22T00:51:19.542Z,3.33
2023-01-22T00:53:48.378Z,3.17
2023-01-22T00:56:18.079Z,3.40
2023-01-22T00:58:46.774Z,3.53
2023-01-22T01:01:16.273Z,3.00
2023-01-22T01:03:44.674Z,3.40
2023-01-22T01:06:16.349Z,3.20
2023-01-22T01:08:46.155Z,2.80
2023-01-22T01:11:17.226Z,3.30
2023-01-22T01:13:46.134Z,3.67
2023-01-22T01:16:17.913Z,3.20
2023-01-22T01:18:47.669Z,3.20
2023-01-22T01:21:17.187Z,2.90
2023-01-22T01:23:47.602Z,2.70
2023-01-22T01:26:17.567Z,3.07
2023-01-22T01:28:46.473Z,2.70
2023-01-22T01:31:16.530Z,3.17
2023-01-22T01:33:45.686Z,3.30
2023-01-22T01:36:15.560Z,3.00
2023-01-22T01:38:44.477Z,3.20
2023-01-22T01:41:16.738Z,3.07
2023-01-22T01:43:45.656Z,3.50
2023-01-22T01:46:20.234Z,2.83
2023-01-22T01:48:51.630Z,2.83
2023-01-22T01:51:24.734Z,2.40
2023-01-22T01:53:53.464Z,3.10
2023-01-22T01:56:26.780Z,2.67
2023-01-22T01:58:57.626Z,4.07
2023-01-22T02:01:26.630Z,3.00
2023-01-22T02:03:55.208Z,3.07
2023-01-22T02:06:23.999Z,2.90
2023-01-22T02:08:53.812Z,3.30
2023-01-22T02:11:24.344Z,3.23
2023-01-22T02:13:56.487Z,3.47
2023-01-22T02:16:25.056Z,3.13
2023-01-22T02:18:53.569Z,3.10
2023-01-22T02:21:44.404Z,3.07
2023-01-22T02:24:14.573Z,3.43
2023-01-22T02:27:01.647Z,2.80
2023-01-22T02:29:30.994Z,3.00
2023-01-22T02:31:59.476Z,3.33
2023-01-22T02:34:27.843Z,3.13
2023-01-22T02:36:57.697Z,3.33
2023-01-22T02:39:26.152Z,2.73
2023-01-22T02:41:54.840Z,3.30
2023-01-22T02:44:23.241Z,2.90
2023-01-22T02:46:51.884Z,2.77
2023-01-22T02:49:20.234Z,3.00
2023-01-22T02:51:51.394Z,2.90
2023-01-22T02:54:22.264Z,2.93
2023-01-22T02:56:52.000Z,3.80
2023-01-22T02:59:20.454Z,3.10
2023-01-22T03:01:49.065Z,3.47
2023-01-22T03:04:17.739Z,4.30
2023-01-22T03:06:47.056Z,3.43
2023-01-22T03:09:17.778Z,3.87
2023-01-22T03:11:48.434Z,3.93
2023-01-22T03:14:47.313Z,3.97
2023-01-22T03:17:34.460Z,3.37
2023-01-22T03:20:20.470Z,3.50
2023-01-22T03:22:49.851Z,2.90
2023-01-22T03:25:18.595Z,3.13
2023-01-22T03:28:03.503Z,3.83
2023-01-22T03:30:32.188Z,3.80
2023-01-22T03:33:00.540Z,3.13
2023-01-22T03:35:29.420Z,3.30
2023-01-22T03:38:15.010Z,3.00
2023-01-22T03:41:01.761Z,3.03
2023-01-22T03:43:32.450Z,3.20
2023-01-22T03:46:05.188Z,3.50
2023-01-22T03:48:34.452Z,3.50
2023-01-22T03:51:07.588Z,3.17
2023-01-22T03:53:36.104Z,2.57
2023-01-22T03:56:07.341Z,3.13
2023-01-22T03:58:39.310Z,2.70
2023-01-22T04:01:10.520Z,2.73
2023-01-22T04:03:40.257Z,2.47
2023-01-22T04:06:10.689Z,2.50
2023-01-22T04:08:41.389Z,2.13
2023-01-22T04:11:11.852Z,2.67
2023-01-22T04:13:43.126Z,2.70
2023-01-22T04:16:13.332Z,3.77
2023-01-22T04:19:00.559Z,2.70
2023-01-22T04:21:38.119Z,2.73
2023-01-22T04:24:10.311Z,3.10
2023-01-22T04:26:38.791Z,2.40
2023-01-22T04:29:08.663Z,2.90
2023-01-22T04:31:37.469Z,2.37
2023-01-22T04:34:26.562Z,2.20
2023-01-22T04:37:17.796Z,2.73
2023-01-22T04:39:46.730Z,2.47
2023-01-22T04:42:15.430Z,2.40
2023-01-22T04:44:45.462Z,3.10
2023-01-22T04:47:14.330Z,3.13
2023-01-22T04:49:42.862Z,2.50
2023-01-22T04:52:13.616Z,3.23
2023-01-22T04:54:41.960Z,2.90
2023-01-22T04:57:10.477Z,2.57
2023-01-22T04:59:39.727Z,2.83
2023-01-22T05:02:09.727Z,2.50
2023-01-22T05:04:38.292Z,2.80
2023-01-22T05:07:06.912Z,3.90
2023-01-22T05:09:35.701Z,2.63
2023-01-22T05:12:04.276Z,2.60
2023-01-22T05:14:38.212Z,2.97
2023-01-22T05:17:09.426Z,2.50
2023-01-22T05:19:37.820Z,2.93
2023-01-22T05:22:11.716Z,2.83
2023-01-22T05:24:40.138Z,2.13
2023-01-22T05:27:08.530Z,2.73
2023-01-22T05:29:45.375Z,2.60
2023-01-22T05:32:30.066Z,2.07
2023-01-22T05:34:58.429Z,2.43
2023-01-22T05:37:27.630Z,2.20
2023-01-22T05:39:56.573Z,2.43
2023-01-22T05:42:26.101Z,2.83
2023-01-22T05:44:55.099Z,2.10
2023-01-22T05:47:26.247Z,2.03
2023-01-22T05:50:12.979Z,2.77
2023-01-22T05:52:41.460Z,3.20
2023-01-22T05:55:10.621Z,2.20
2023-01-22T05:57:43.785Z,2.10
2023-01-22T06:00:15.586Z,2.70
2023-01-22T06:02:56.530Z,2.27
2023-01-22T06:05:26.936Z,2.03
2023-01-22T06:08:02.944Z,2.20
2023-01-22T06:10:38.716Z,2.13
2023-01-22T06:13:07.092Z,2.00
2023-01-22T06:15:35.776Z,1.83
2023-01-22T06:18:17.590Z,1.90
2023-01-22T06:20:47.894Z,1.97
2023-01-22T06:23:17.813Z,2.33
2023-01-22T06:25:53.759Z,1.70
2023-01-22T06:28:23.841Z,2.13
2023-01-22T06:30:53.212Z,2.83
2023-01-22T06:33:21.738Z,2.10
2023-01-22T06:35:54.984Z,1.93
2023-01-22T06:38:25.709Z,2.30
2023-01-22T06:40:54.760Z,1.90
2023-01-22T06:43:24.105Z,1.70
2023-01-22T06:45:53.363Z,1.70
2023-01-22T06:48:25.374Z,1.80
2023-01-22T06:50:58.541Z,2.43
2023-01-22T06:53:27.414Z,1.67
2023-01-22T06:55:55.902Z,1.73
2023-01-22T06:58:24.563Z,2.40
2023-01-22T07:00:53.057Z,3.40
2023-01-22T07:03:21.738Z,2.10
2023-01-22T07:05:59.191Z,1.90
2023-01-22T07:08:28.760Z,1.97
2023-01-22T07:10:57.186Z,2.10
2023-01-22T07:13:26.837Z,1.80
2023-01-22T07:15:55.297Z,1.60
2023-01-22T07:18:24.413Z,1.67
2023-01-22T07:20:52.919Z,2.40
2023-01-22T07:23:23.192Z,1.70
2023-01-22T07:25:51.692Z,2.47
2023-01-22T07:28:20.205Z,2.10
2023-01-22T07:30:48.726Z,2.00
2023-01-22T07:33:17.870Z,2.20
2023-01-22T07:35:46.545Z,2.00
2023-01-22T07:38:14.835Z,2.03
2023-01-22T07:40:44.628Z,1.93
2023-01-22T07:43:15.058Z,1.57
2023-01-22T07:45:43.348Z,2.20
2023-01-22T07:48:11.920Z,1.53
2023-01-22T07:50:40.490Z,2.03
2023-01-22T07:53:11.696Z,2.53
2023-01-22T07:55:40.016Z,1.67
2023-01-22T07:58:10.046Z,2.07
2023-01-22T08:00:38.594Z,1.37
2023-01-22T08:03:10.369Z,1.50
2023-01-22T08:05:40.808Z,2.47
2023-01-22T08:08:14.336Z,2.00
2023-01-22T08:10:43.101Z,1.90
2023-01-22T08:13:12.979Z,2.37
2023-01-22T08:15:42.728Z,2.17
2023-01-22T08:18:11.846Z,1.77
2023-01-22T08:20:40.303Z,2.23
2023-01-22T08:23:08.715Z,2.30
2023-01-22T08:25:37.165Z,1.80
2023-01-22T08:28:06.671Z,1.83
2023-01-22T08:30:45.325Z,2.33
2023-01-22T08:33:15.771Z,2.10
2023-01-22T08:35:44.302Z,1.90
2023-01-22T08:38:13.951Z,1.80
2023-01-22T08:40:42.473Z,2.70
2023-01-22T08:43:10.961Z,2.33
2023-01-22T08:45:40.838Z,1.37
2023-01-22T08:48:09.182Z,1.83
2023-01-22T08:50:37.836Z,2.00
2023-01-22T08:53:06.228Z,2.00
2023-01-22T08:55:34.620Z,2.13
2023-01-22T08:58:03.228Z,2.00
2023-01-22T09:00:31.598Z,1.50
2023-01-22T09:03:01.557Z,1.93
2023-01-22T09:05:30.103Z,1.70
2023-01-22T09:07:58.381Z,1.57
2023-01-22T09:10:26.933Z,1.77
2023-01-22T09:12:55.935Z,1.47
2023-01-22T09:15:24.503Z,1.60
2023-01-22T09:17:52.968Z,1.90
2023-01-22T09:20:22.700Z,2.60
2023-01-22T09:22:51.260Z,1.80
2023-01-22T09:25:20.403Z,1.53
2023-01-22T09:27:48.893Z,1.30
2023-01-22T09:30:18.106Z,1.80
2023-01-22T09:32:46.816Z,1.63
2023-01-22T09:35:16.630Z,1.73
2023-01-22T09:37:46.489Z,1.50
2023-01-22T09:40:22.955Z,2.60
2023-01-22T09:42:51.964Z,1.97
2023-01-22T09:45:25.092Z,1.37
2023-01-22T09:47:56.049Z,1.73
2023-01-22T09:50:26.571Z,1.70
2023-01-22T09:52:58.342Z,1.43
2023-01-22T09:55:30.943Z,2.03
2023-01-22T09:58:02.909Z,1.93
2023-01-22T10:00:38.017Z,1.50
2023-01-22T10:03:11.311Z,1.87
2023-01-22T10:05:40.897Z,2.10
2023-01-22T10:08:12.796Z,1.67
2023-01-22T10:10:41.575Z,1.47
2023-01-22T10:13:14.876Z,1.60
2023-01-22T10:15:43.358Z,1.30
2023-01-22T10:18:29.099Z,1.60
2023-01-22T10:20:59.351Z,1.90
2023-01-22T10:23:29.267Z,1.70
2023-01-22T10:26:01.356Z,1.37
2023-01-22T10:28:30.001Z,1.83
2023-01-22T10:30:59.110Z,1.43
2023-01-22T10:33:29.130Z,1.90
2023-01-22T10:35:58.062Z,2.07
2023-01-22T10:38:30.838Z,1.70
2023-01-22T10:41:00.792Z,2.63
2023-01-22T10:43:34.180Z,1.60
2023-01-22T10:46:06.418Z,1.60
2023-01-22T10:48:35.404Z,1.60
2023-01-22T10:51:13.820Z,1.70
2023-01-22T10:53:48.915Z,1.57
2023-01-22T10:56:29.229Z,1.50
2023-01-22T10:58:58.135Z,1.33
2023-01-22T11:01:29.918Z,1.53
2023-01-22T11:03:58.425Z,2.03
2023-01-22T11:06:30.086Z,1.40
2023-01-22T11:09:02.984Z,1.73
2023-01-22T11:11:34.696Z,3.13
2023-01-22T11:14:06.032Z,1.60
2023-01-22T11:16:37.479Z,1.70
2023-01-22T11:19:08.376Z,1.70
2023-01-22T11:21:41.181Z,1.67
2023-01-22T11:24:14.662Z,1.60
2023-01-22T11:27:06.646Z,1.90
2023-01-22T11:30:02.640Z,1.70
2023-01-22T11:32:44.092Z,1.87
2023-01-22T11:35:20.536Z,1.67
2023-01-22T11:38:14.929Z,1.80
2023-01-22T11:40:58.249Z,1.50
2023-01-22T11:43:36.771Z,2.43
2023-01-22T11:46:20.750Z,1.50
2023-01-22T11:49:14.347Z,1.50
2023-01-22T11:51:49.772Z,1.50
2023-01-22T11:54:28.908Z,1.67
2023-01-22T11:57:10.881Z,1.80
2023-01-22T11:59:53.011Z,1.80
2023-01-22T12:02:38.557Z,1.70
2023-01-22T12:05:14.774Z,1.97
2023-01-22T12:08:04.524Z,1.90
2023-01-22T12:10:55.093Z,1.63
2023-01-22T12:13:49.431Z,1.40
2023-01-22T12:16:25.180Z,1.80
2023-01-22T12:19:31.117Z,1.73
2023-01-22T12:22:05.156Z,2.10
2023-01-22T12:24:38.683Z,1.70
2023-01-22T12:27:12.328Z,1.53
2023-01-22T12:29:45.276Z,1.80
2023-01-22T12:32:19.121Z,1.77
2023-01-22T12:34:51.677Z,1.40
2023-01-22T12:37:23.173Z,1.67
2023-01-22T12:40:13.488Z,1.83
2023-01-22T12:42:44.877Z,1.43
2023-01-22T12:45:21.300Z,1.30
2023-01-22T12:47:52.771Z,1.97
2023-01-22T12:50:23.140Z,1.50
2023-01-22T12:53:00.518Z,1.43
2023-01-22T12:55:37.261Z,1.87
2023-01-22T12:58:06.591Z,1.70
2023-01-22T13:00:39.330Z,1.40
2023-01-22T13:03:31.688Z,1.60
2023-01-22T13:06:01.740Z,1.90
2023-01-22T13:08:42.224Z,1.73
2023-01-22T13:11:11.796Z,1.70
2023-01-22T13:13:45.166Z,1.50
2023-01-22T13:16:24.481Z,2.17
2023-01-22T13:18:55.537Z,1.40
2023-01-22T13:21:28.455Z,1.50
2023-01-22T13:24:00.732Z,1.90
2023-01-22T13:26:31.676Z,1.40
2023-01-22T13:29:01.895Z,2.03
2023-01-22T13:31:33.060Z,1.50
2023-01-22T13:34:08.843Z,1.50
2023-01-22T13:36:39.806Z,1.63
2023-01-22T13:39:08.566Z,1.80
2023-01-22T13:41:38.641Z,2.10
2023-01-22T13:44:08.143Z,1.73
2023-01-22T13:46:39.901Z,1.90
2023-01-22T13:49:13.525Z,1.77
2023-01-22T13:51:42.731Z,1.90
2023-01-22T13:54:20.013Z,1.50
2023-01-22T13:56:48.563Z,1.70
2023-01-22T13:59:20.615Z,1.80
2023-01-22T14:01:50.900Z,1.77
2023-01-22T14:04:37.162Z,1.47
2023-01-22T14:07:06.563Z,2.00
2023-01-22T14:09:36.993Z,1.50
2023-01-22T14:12:15.646Z,1.60
2023-01-22T14:14:44.680Z,1.80
2023-01-22T14:17:29.991Z,2.37
2023-01-22T14:19:59.089Z,2.10
2023-01-22T14:22:27.674Z,2.00
2023-01-22T14:24:56.602Z,2.87
2023-01-22T14:27:28.660Z,3.10
2023-01-22T14:29:57.036Z,2.40
2023-01-22T14:32:27.129Z,1.83
2023-01-22T14:34:55.994Z,3.20
2023-01-22T14:37:24.671Z,2.70
2023-01-22T14:39:53.067Z,2.70
2023-01-22T14:42:21.637Z,2.47
2023-01-22T14:44:50.221Z,2.07
2023-01-22T14:47:18.603Z,2.07
2023-01-22T14:49:48.523Z,2.37
2023-01-22T14:52:16.854Z,2.77
2023-01-22T14:54:45.184Z,2.33
2023-01-22T14:57:13.475Z,2.33
2023-01-22T14:59:41.939Z,2.10
2023-01-22T15:02:11.504Z,1.77
2023-01-22T15:04:41.100Z,2.00
2023-01-22T15:07:11.201Z,2.47
2023-01-22T15:09:39.759Z,1.80
2023-01-22T15:12:09.050Z,2.17
2023-01-22T15:14:37.656Z,1.90
2023-01-22T15:17:06.084Z,1.53
2023-01-22T15:19:41.199Z,1.60
2023-01-22T15:22:11.325Z,2.20
2023-01-22T15:24:40.063Z,2.43
2023-01-22T15:27:08.481Z,2.30
2023-01-22T15:29:37.233Z,2.57
2023-01-22T15:32:06.145Z,1.70
2023-01-22T15:34:34.619Z,2.17
2023-01-22T15:37:03.918Z,1.70
2023-01-22T15:39:33.809Z,2.13
2023-01-22T15:42:02.301Z,2.10
2023-01-22T15:44:30.811Z,1.70
2023-01-22T15:47:01.211Z,1.83
2023-01-22T15:49:29.787Z,1.60
2023-01-22T15:51:58.305Z,2.20
2023-01-22T15:54:27.078Z,1.60
2023-01-22T15:56:56.875Z,1.70
2023-01-22T15:59:25.290Z,2.10
2023-01-22T16:01:53.654Z,1.97
2023-01-22T16:04:22.032Z,2.33
2023-01-22T16:06:51.552Z,2.20
2023-01-22T16:09:20.140Z,2.17
2023-01-22T16:11:48.592Z,2.80
2023-01-22T16:14:19.247Z,1.67
2023-01-22T16:16:47.546Z,2.53
2023-01-22T16:19:15.960Z,1.90
2023-01-22T16:21:45.907Z,1.70
2023-01-22T16:24:14.349Z,1.70
2023-01-22T16:26:42.800Z,2.27
2023-01-22T16:29:11.874Z,2.13
2023-01-22T16:31:41.805Z,1.67
2023-01-22T16:34:12.232Z,2.10
2023-01-22T16:36:41.303Z,1.83
2023-01-22T16:39:10.919Z,2.00
2023-01-22T16:41:39.360Z,2.17
2023-01-22T16:44:09.947Z,1.80
2023-01-22T16:46:40.336Z,2.10
2023-01-22T16:49:15.035Z,2.20
2023-01-22T16:51:45.569Z,1.90
2023-01-22T16:54:19.919Z,1.93
2023-01-22T16:56:48.427Z,1.90
2023-01-22T16:59:17.133Z,1.60
2023-01-22T17:01:45.841Z,2.00
2023-01-22T17:04:15.707Z,1.70
2023-01-22T17:06:45.105Z,1.67
2023-01-22T17:09:16.430Z,2.10
2023-01-22T17:11:47.156Z,2.00
2023-01-22T17:14:16.663Z,1.83
2023-01-22T17:16:45.257Z,2.17
2023-01-22T17:19:15.257Z,2.63
2023-01-22T17:21:43.609Z,1.93
2023-01-22T17:24:12.841Z,1.87
2023-01-22T17:26:42.062Z,2.27
2023-01-22T17:29:11.347Z,2.67
2023-01-22T17:31:40.217Z,1.90
2023-01-22T17:34:11.069Z,2.50
2023-01-22T17:36:42.699Z,2.33
2023-01-22T17:39:15.917Z,2.30
2023-01-22T17:41:44.911Z,2.00
2023-01-22T17:44:14.096Z,2.07
2023-01-22T17:46:42.639Z,2.77
2023-01-22T17:49:11.533Z,1.93
2023-01-22T17:51:41.323Z,2.10
2023-01-22T17:54:10.121Z,1.80
2023-01-22T17:56:43.116Z,2.50
2023-01-22T17:59:12.411Z,2.17
2023-01-22T18:01:41.147Z,2.73
2023-01-22T18:04:12.915Z,2.20
2023-01-22T18:06:43.896Z,2.17
2023-01-22T18:09:13.403Z,1.97
2023-01-22T18:11:42.059Z,2.23
2023-01-22T18:14:14.122Z,2.23
2023-01-22T18:16:43.311Z,1.80
2023-01-22T18:19:11.809Z,2.27
2023-01-22T18:21:41.914Z,2.10
2023-01-22T18:24:12.667Z,2.27
2023-01-22T18:26:41.132Z,2.40
2023-01-22T18:29:10.096Z,2.30
2023-01-22T18:31:38.680Z,2.30
2023-01-22T18:34:08.267Z,2.37
2023-01-22T18:36:39.225Z,2.30
2023-01-22T18:39:10.715Z,2.47
2023-01-22T18:41:40.135Z,2.87
2023-01-22T18:44:09.726Z,2.27
2023-01-22T18:46:39.468Z,2.73
2023-01-22T18:49:09.553Z,2.23
2023-01-22T18:51:37.903Z,2.23
2023-01-22T18:54:07.882Z,2.60
2023-01-22T18:56:37.567Z,2.47
2023-01-22T18:59:06.889Z,2.43
2023-01-22T19:01:38.423Z,2.30
2023-01-22T19:04:08.643Z,2.23
2023-01-22T19:06:38.684Z,2.33
2023-01-22T19:09:09.903Z,2.57
2023-01-22T19:11:40.674Z,1.87
2023-01-22T19:14:09.324Z,2.10
2023-01-22T19:16:38.729Z,2.30
2023-01-22T19:19:11.533Z,2.30
2023-01-22T19:21:41.286Z,2.00
2023-01-22T19:24:11.609Z,2.73
2023-01-22T19:26:40.432Z,1.90
2023-01-22T19:29:11.798Z,2.20
2023-01-22T19:31:41.921Z,2.30
2023-01-22T19:34:12.389Z,2.27
2023-01-22T19:36:41.096Z,2.20
2023-01-22T19:39:13.405Z,2.10
2023-01-22T19:41:42.373Z,2.17
2023-01-22T19:44:11.961Z,2.00
2023-01-22T19:46:40.858Z,1.90
2023-01-22T19:49:11.012Z,2.13
2023-01-22T19:51:40.595Z,3.63
2023-01-22T19:54:10.503Z,3.07
2023-01-22T19:56:39.970Z,2.20
2023-01-22T19:59:09.719Z,2.63
2023-01-22T20:01:39.177Z,2.27
2023-01-22T20:04:12.589Z,2.13
2023-01-22T20:06:41.321Z,2.87
2023-01-22T20:09:11.515Z,1.77
2023-01-22T20:11:40.647Z,1.93
2023-01-22T20:14:09.208Z,2.27
2023-01-22T20:16:40.729Z,1.90
2023-01-22T20:19:09.136Z,2.03
2023-01-22T20:21:37.437Z,2.00
2023-01-22T20:24:06.416Z,1.67
2023-01-22T20:26:36.527Z,2.70
2023-01-22T20:29:04.985Z,2.00
2023-01-22T20:31:33.628Z,1.83
2023-01-22T20:34:03.233Z,2.07
2023-01-22T20:36:32.620Z,2.30
2023-01-22T20:39:02.115Z,1.80
2023-01-22T20:41:32.297Z,1.90
2023-01-22T20:44:02.234Z,1.97
2023-01-22T20:46:30.810Z,2.00
2023-01-22T20:48:59.490Z,2.10
2023-01-22T20:51:29.512Z,1.73
2023-01-22T20:53:58.690Z,2.07
2023-01-22T20:56:31.639Z,2.17
2023-01-22T20:59:03.070Z,2.10
2023-01-22T21:01:32.247Z,2.17
2023-01-22T21:04:01.585Z,2.30
2023-01-22T21:06:33.242Z,1.97
2023-01-22T21:09:02.255Z,1.70
2023-01-22T21:11:32.259Z,1.77
2023-01-22T21:14:04.528Z,1.90
2023-01-22T21:16:35.141Z,1.80
2023-01-22T21:19:05.383Z,2.20
2023-01-22T21:21:35.520Z,2.00
2023-01-22T21:24:05.134Z,2.17
2023-01-22T21:26:34.597Z,3.13
2023-01-22T21:29:07.765Z,2.40
2023-01-22T21:31:37.018Z,3.37
2023-01-22T21:34:08.678Z,2.20
2023-01-22T21:36:38.976Z,2.33
2023-01-22T21:39:09.512Z,2.77
2023-01-22T21:41:38.481Z,2.20
2023-01-22T21:44:26.224Z,1.93
2023-01-22T21:46:54.613Z,2.27
2023-01-22T21:49:24.631Z,2.10
2023-01-22T21:51:54.896Z,2.20
2023-01-22T21:54:24.957Z,2.37
2023-01-22T21:56:54.182Z,2.30
2023-01-22T21:59:24.429Z,2.30
2023-01-22T22:01:54.541Z,1.97
2023-01-22T22:04:24.710Z,2.30
2023-01-22T22:06:53.961Z,2.50
2023-01-22T22:09:25.290Z,2.37
2023-01-22T22:11:57.044Z,2.50
2023-01-22T22:14:27.313Z,2.40
2023-01-22T22:16:56.937Z,2.67
2023-01-22T22:19:25.859Z,3.53
2023-01-22T22:21:54.342Z,2.33
2023-01-22T22:24:23.048Z,2.70
2023-01-22T22:26:51.550Z,2.67
2023-01-22T22:29:24.927Z,3.03
2023-01-22T22:31:57.320Z,3.00
2023-01-22T22:34:28.028Z,2.90
2023-01-22T22:36:57.169Z,3.10
2023-01-22T22:39:29.699Z,2.90
2023-01-22T22:41:58.479Z,2.47
2023-01-22T22:44:26.899Z,2.20
2023-01-22T22:46:56.908Z,2.43
2023-01-22T22:49:25.359Z,2.53
2023-01-22T22:51:53.817Z,2.87
2023-01-22T22:54:22.533Z,3.10
2023-01-22T22:56:51.293Z,3.37
2023-01-22T22:59:21.062Z,3.73
2023-01-22T23:01:50.223Z,3.20
2023-01-22T23:04:20.013Z,3.77
2023-01-22T23:06:48.867Z,3.53
2023-01-22T23:09:19.526Z,3.90
2023-01-22T23:11:51.535Z,3.60
2023-01-22T23:14:20.335Z,3.37
2023-01-22T23:16:49.155Z,3.07
2023-01-22T23:19:20.364Z,3.47
2023-01-22T23:21:51.215Z,3.50
2023-01-22T23:24:20.420Z,3.77
2023-01-22T23:26:49.076Z,3.80
2023-01-22T23:29:19.554Z,3.90
2023-01-22T23:31:48.397Z,3.73
2023-01-22T23:34:20.131Z,3.83
2023-01-22T23:36:49.382Z,4.13
2023-01-22T23:39:19.905Z,3.70
2023-01-22T23:41:48.265Z,4.87
2023-01-22T23:44:16.640Z,4.20
2023-01-22T23:46:45.841Z,4.30
2023-01-22T23:49:14.591Z,4.57
2023-01-22T23:51:45.148Z,4.83
2023-01-22T23:54:13.711Z,5.00
2023-01-22T23:56:41.905Z,5.87
2023-01-22T23:59:11.000Z,5.13
